createdAt,value
2017-08-12T00:02:34.882Z,20.63
2017-08-12T00:07:41.347Z,22.20
2017-08-12T00:12:43.628Z,20.60
2017-08-12T00:17:45.996Z,20.20
2017-08-12T00:22:49.430Z,28.83
2017-08-12T00:27:56.582Z,27.30
2017-08-12T00:33:02.903Z,23.30
2017-08-12T00:38:08.322Z,25.00
2017-08-12T00:43:12.926Z,25.63
2017-08-12T00:48:17.624Z,25.33
2017-08-12T00:53:20.597Z,24.53
2017-08-12T00:58:23.610Z,25.37
2017-08-12T01:03:26.092Z,29.60
2017-08-12T01:08:28.831Z,28.43
2017-08-12T01:13:32.188Z,28.87
2017-08-12T01:18:34.437Z,33.77
2017-08-12T01:23:36.855Z,32.33
2017-08-12T01:28:38.990Z,31.30
2017-08-12T01:33:40.910Z,40.30
2017-08-12T01:38:43.532Z,31.73
2017-08-12T01:43:45.727Z,25.97
2017-08-12T01:48:49.030Z,26.30
2017-08-12T01:53:51.926Z,27.60
2017-08-12T01:58:53.863Z,24.90
2017-08-12T02:03:55.823Z,29.57
2017-08-12T02:08:57.845Z,25.70
2017-08-12T02:13:59.803Z,24.80
2017-08-12T02:19:01.727Z,23.97
2017-08-12T02:24:03.719Z,27.37
2017-08-12T02:29:05.639Z,27.00
2017-08-12T02:34:07.581Z,28.73
2017-08-12T02:39:09.528Z,28.87
2017-08-12T02:44:11.472Z,42.30
2017-08-12T02:49:13.458Z,34.00
2017-08-12T02:54:15.382Z,38.00
2017-08-12T02:59:17.379Z,32.13
2017-08-12T03:04:19.814Z,29.93
2017-08-12T03:09:22.534Z,45.63
2017-08-12T03:14:24.629Z,37.53
2017-08-12T03:19:27.073Z,42.87
2017-08-12T03:24:29.070Z,36.53
2017-08-12T03:29:31.751Z,42.93
2017-08-12T03:34:33.691Z,47.87
2017-08-12T03:39:36.418Z,53.03
2017-08-12T03:44:38.330Z,50.93
2017-08-12T03:49:40.297Z,50.90
2017-08-12T03:54:42.218Z,53.83
2017-08-12T03:59:44.466Z,63.40
2017-08-12T04:04:46.446Z,62.53
2017-08-12T04:09:48.439Z,51.27
2017-08-12T04:14:50.443Z,58.00
2017-08-12T04:19:52.775Z,56.80
2017-08-12T04:24:54.755Z,65.80
2017-08-12T04:29:56.755Z,66.73
2017-08-12T04:34:58.700Z,76.83
2017-08-12T04:40:03.266Z,76.43
2017-08-12T04:45:05.331Z,74.03
2017-08-12T04:50:08.128Z,81.03
2017-08-12T04:55:10.682Z,85.47
2017-08-12T05:00:13.931Z,82.83
2017-08-12T05:05:16.666Z,85.30
2017-08-12T05:10:18.671Z,81.37
2017-08-12T05:15:21.353Z,87.37
2017-08-12T05:20:23.557Z,91.97
2017-08-12T05:25:25.892Z,78.10
2017-08-12T05:30:29.083Z,76.37
2017-08-12T05:35:31.976Z,80.43
2017-08-12T05:40:36.404Z,80.37
2017-08-12T05:45:38.425Z,77.17
2017-08-12T05:50:40.384Z,77.63
2017-08-12T05:55:43.142Z,74.03
2017-08-12T06:00:46.520Z,66.40
2017-08-12T06:05:49.092Z,68.73
2017-08-12T06:10:51.091Z,60.17
2017-08-12T06:15:53.052Z,68.63
2017-08-12T06:20:54.995Z,63.00
2017-08-12T06:25:56.950Z,59.97
2017-08-12T06:30:58.920Z,62.57
2017-08-12T06:36:00.876Z,74.37
2017-08-12T06:41:03.616Z,70.93
2017-08-12T06:46:05.568Z,84.47
2017-08-12T06:51:07.518Z,62.23
2017-08-12T06:56:09.470Z,69.57
2017-08-12T07:01:12.209Z,85.63
2017-08-12T07:06:14.534Z,74.43
2017-08-12T07:11:17.052Z,63.17
2017-08-12T07:16:19.784Z,60.73
2017-08-12T07:21:21.955Z,55.83
2017-08-12T07:26:23.918Z,50.30
2017-08-12T07:31:25.993Z,46.93
2017-08-12T07:36:28.054Z,45.97
2017-08-12T07:41:30.009Z,43.73
2017-08-12T07:46:32.028Z,46.77
2017-08-12T07:51:35.005Z,43.03
2017-08-12T07:56:37.087Z,37.13
2017-08-12T08:01:39.834Z,43.97
2017-08-12T08:06:41.889Z,52.30
2017-08-12T08:11:43.981Z,42.97
2017-08-12T08:16:46.706Z,42.33
2017-08-12T08:21:48.673Z,52.93
2017-08-12T08:26:51.567Z,48.73
2017-08-12T08:31:53.739Z,41.67
2017-08-12T08:36:55.716Z,57.63
2017-08-12T08:41:57.675Z,46.73
2017-08-12T08:46:59.643Z,52.07
2017-08-12T08:52:01.581Z,54.73
2017-08-12T08:57:03.878Z,51.70
2017-08-12T09:02:06.007Z,53.13
2017-08-12T09:07:07.951Z,52.87
2017-08-12T09:12:09.927Z,51.57
2017-08-12T09:17:12.623Z,53.50
2017-08-12T09:22:14.597Z,48.90
2017-08-12T09:27:16.614Z,41.33
2017-08-12T09:32:19.264Z,44.13
2017-08-12T09:37:21.939Z,40.33
2017-08-12T09:42:23.934Z,36.40
2017-08-12T09:47:25.875Z,37.63
2017-08-12T09:52:27.910Z,32.43
2017-08-12T09:57:29.938Z,33.47
2017-08-12T10:02:31.886Z,33.33
2017-08-12T10:07:33.845Z,28.40
2017-08-12T10:12:35.887Z,34.07
2017-08-12T10:17:37.874Z,32.23
2017-08-12T10:22:39.859Z,28.03
2017-08-12T10:27:41.892Z,31.23
2017-08-12T10:32:43.849Z,24.23
2017-08-12T10:37:46.567Z,19.97
2017-08-12T10:42:48.552Z,22.00
2017-08-12T10:47:50.561Z,16.93
2017-08-12T10:52:52.618Z,15.13
2017-08-12T10:57:54.620Z,16.43
2017-08-12T11:02:56.611Z,16.73
2017-08-12T11:07:59.244Z,17.97
2017-08-12T11:13:01.251Z,16.90
2017-08-12T11:18:03.261Z,17.80
2017-08-12T11:23:05.185Z,16.40
2017-08-12T11:28:07.201Z,20.10
2017-08-12T11:33:09.133Z,15.77
2017-08-12T11:38:11.091Z,14.27
2017-08-12T11:43:13.826Z,15.13
2017-08-12T11:48:15.801Z,14.43
2017-08-12T11:53:17.765Z,13.57
2017-08-12T11:58:20.476Z,11.40
2017-08-12T12:03:22.439Z,11.03
2017-08-12T12:08:24.376Z,10.53
2017-08-12T12:13:26.387Z,14.73
2017-08-12T12:18:29.042Z,11.30
2017-08-12T12:23:31.142Z,15.67
2017-08-12T12:28:33.152Z,11.70
2017-08-12T12:33:35.813Z,12.00
2017-08-12T12:38:37.780Z,7.43
2017-08-12T12:43:39.761Z,7.00
2017-08-12T12:48:41.766Z,9.80
2017-08-12T12:53:43.727Z,8.30
2017-08-12T12:58:45.713Z,6.27
2017-08-12T13:03:47.713Z,6.57
2017-08-12T13:08:49.681Z,6.90
2017-08-12T13:13:51.706Z,6.10
2017-08-12T13:18:54.070Z,6.33
2017-08-12T13:23:56.026Z,5.97
2017-08-12T13:28:57.998Z,7.37
2017-08-12T13:33:59.987Z,7.20
2017-08-12T13:39:02.859Z,8.23
2017-08-12T13:44:12.499Z,7.67
2017-08-12T13:49:14.514Z,8.50
2017-08-12T13:54:16.587Z,8.83
2017-08-12T13:59:18.627Z,9.37
2017-08-12T14:04:21.385Z,17.47
2017-08-12T14:09:23.306Z,10.97
2017-08-12T14:14:25.325Z,12.80
2017-08-12T14:19:27.266Z,14.23
2017-08-12T14:24:29.283Z,18.17
2017-08-12T14:29:31.980Z,17.90
2017-08-12T14:34:33.926Z,20.63
2017-08-12T14:39:35.969Z,20.33
2017-08-12T14:44:37.930Z,22.87
2017-08-12T14:49:39.920Z,25.40
2017-08-12T14:54:41.845Z,22.40
2017-08-12T14:59:44.882Z,22.10
2017-08-12T15:04:46.937Z,24.33
2017-08-12T15:09:48.986Z,18.27
2017-08-12T15:14:51.023Z,19.77
2017-08-12T15:19:53.011Z,24.33
2017-08-12T15:24:54.956Z,17.40
2017-08-12T15:34:59.073Z,19.80
2017-08-12T15:40:01.081Z,18.63
2017-08-12T15:45:03.219Z,19.47
2017-08-12T15:50:05.146Z,17.13
2017-08-12T15:55:07.151Z,17.63
2017-08-12T16:00:09.115Z,18.97
2017-08-12T16:05:11.120Z,17.67
2017-08-12T16:10:13.128Z,15.03
2017-08-12T16:15:15.176Z,15.17
2017-08-12T16:20:17.943Z,14.00
2017-08-12T16:25:20.005Z,14.23
2017-08-12T16:30:22.719Z,15.30
2017-08-12T16:35:24.680Z,19.17
2017-08-12T16:40:26.687Z,21.33
2017-08-12T16:45:28.684Z,24.23
2017-08-12T16:50:30.636Z,23.07
2017-08-12T16:55:32.587Z,23.43
2017-08-12T17:00:34.592Z,26.50
2017-08-12T17:05:36.569Z,27.30
2017-08-12T17:10:38.569Z,29.77
2017-08-12T17:15:40.539Z,30.07
2017-08-12T17:20:43.596Z,29.47
2017-08-12T17:25:47.888Z,30.07
2017-08-12T17:30:50.003Z,36.20
2017-08-12T17:35:52.003Z,36.33
2017-08-12T17:40:53.924Z,32.40
2017-08-12T17:45:55.922Z,35.23
2017-08-12T17:50:58.660Z,35.30
2017-08-12T17:56:00.604Z,32.63
2017-08-12T18:01:02.628Z,33.93
2017-08-12T18:06:05.495Z,36.10
2017-08-12T18:11:07.594Z,34.50
2017-08-12T18:16:09.520Z,31.37
2017-08-12T18:21:11.465Z,28.37
2017-08-12T18:26:13.589Z,33.60
2017-08-12T18:31:15.718Z,30.57
2017-08-12T18:36:17.785Z,27.87
2017-08-12T18:41:22.340Z,27.80
2017-08-12T18:46:26.527Z,31.13
2017-08-12T18:51:28.479Z,25.70
2017-08-12T18:56:30.411Z,27.13
2017-08-12T19:01:32.919Z,27.23
2017-08-12T19:06:35.801Z,26.60
2017-08-12T19:11:38.828Z,28.03
2017-08-12T19:16:43.454Z,36.10
2017-08-12T19:21:48.044Z,31.63
2017-08-12T19:26:50.128Z,36.47
2017-08-12T19:31:52.109Z,31.60
2017-08-12T19:36:54.337Z,29.00
2017-08-12T19:41:57.025Z,32.93
2017-08-12T19:46:58.990Z,29.50
2017-08-12T19:52:01.028Z,26.20
2017-08-12T19:57:02.987Z,29.40
2017-08-12T20:02:05.015Z,33.97
2017-08-12T20:07:06.955Z,34.77
2017-08-12T20:12:09.001Z,35.90
2017-08-12T20:17:11.233Z,41.07
2017-08-12T20:22:13.310Z,43.23
2017-08-12T20:27:15.342Z,51.77
2017-08-12T20:32:17.616Z,61.60
2017-08-12T20:37:19.752Z,60.63
2017-08-12T20:42:21.721Z,63.10
2017-08-12T20:47:23.808Z,64.00
2017-08-12T20:52:25.768Z,56.80
2017-08-12T20:57:27.794Z,53.50
2017-08-12T21:02:29.771Z,60.37
2017-08-12T21:07:32.519Z,61.43
2017-08-12T21:12:34.584Z,55.73
2017-08-12T21:17:36.556Z,67.27
2017-08-12T21:22:39.503Z,60.07
2017-08-12T21:27:41.468Z,63.50
2017-08-12T21:32:44.156Z,65.67
2017-08-12T21:37:46.346Z,61.10
2017-08-12T21:42:49.095Z,66.53
2017-08-12T21:47:51.100Z,82.73
2017-08-12T21:52:53.198Z,86.13
2017-08-12T21:57:55.187Z,83.53
2017-08-12T22:02:58.259Z,78.07
2017-08-12T22:08:00.579Z,69.80
2017-08-12T22:13:03.007Z,75.97
2017-08-12T22:18:04.980Z,77.50
2017-08-12T22:23:06.899Z,71.80
2017-08-12T22:28:08.861Z,86.77
2017-08-12T22:33:11.352Z,83.13
2017-08-12T22:38:13.307Z,70.10
2017-08-12T22:43:15.278Z,69.00
2017-08-12T22:48:17.567Z,74.10
2017-08-12T22:53:19.789Z,64.07
2017-08-12T22:58:22.106Z,69.80
2017-08-12T23:03:24.102Z,53.77
2017-08-12T23:08:26.825Z,62.93
2017-08-12T23:13:28.821Z,52.90
2017-08-12T23:18:30.806Z,54.83
2017-08-12T23:23:32.844Z,49.07
2017-08-12T23:28:34.922Z,42.67
2017-08-12T23:33:36.858Z,40.93
2017-08-12T23:38:38.800Z,42.43
2017-08-12T23:43:40.747Z,33.17
2017-08-12T23:48:42.703Z,25.03
2017-08-12T23:53:44.648Z,22.00
2017-08-12T23:58:46.610Z,18.73
